createdAt,value
2018-06-18T00:02:21.031Z,74.39
2018-06-18T00:04:51.571Z,74.24
2018-06-18T00:07:21.642Z,74.10
2018-06-18T00:09:51.581Z,74.28
2018-06-18T00:12:21.050Z,74.45
2018-06-18T00:14:50.958Z,74.57
2018-06-18T00:17:21.436Z,74.69
2018-06-18T00:19:51.759Z,75.30
2018-06-18T00:22:21.600Z,75.52
2018-06-18T00:24:51.691Z,75.70
2018-06-18T00:27:21.475Z,75.89
2018-06-18T00:29:51.269Z,75.11
2018-06-18T00:32:21.098Z,74.87
2018-06-18T00:34:52.115Z,74.71
2018-06-18T00:37:21.960Z,74.51
2018-06-18T00:39:51.827Z,74.31
2018-06-18T00:42:22.123Z,74.04
2018-06-18T00:44:51.947Z,74.83
2018-06-18T00:47:21.781Z,74.15
2018-06-18T00:49:51.626Z,74.15
2018-06-18T00:52:21.692Z,74.68
2018-06-18T00:54:51.582Z,74.67
2018-06-18T00:57:22.441Z,74.62
2018-06-18T00:59:52.319Z,74.95
2018-06-18T01:02:22.411Z,75.01
2018-06-18T01:04:52.235Z,75.08
2018-06-18T01:07:22.086Z,74.91
2018-06-18T01:09:51.979Z,74.95
2018-06-18T01:12:21.828Z,74.93
2018-06-18T01:14:51.910Z,74.90
2018-06-18T01:17:21.797Z,75.52
2018-06-18T01:19:51.657Z,75.52
2018-06-18T01:22:22.315Z,75.46
2018-06-18T01:24:58.145Z,75.90
2018-06-18T01:27:28.349Z,75.13
2018-06-18T01:29:58.137Z,75.25
2018-06-18T01:32:28.414Z,74.95
2018-06-18T01:34:58.282Z,75.17
2018-06-18T01:37:28.092Z,75.68
2018-06-18T01:39:58.082Z,75.86
2018-06-18T01:42:27.876Z,76.54
2018-06-18T01:44:58.035Z,76.18
2018-06-18T01:47:27.848Z,76.47
2018-06-18T01:49:57.670Z,76.40
2018-06-18T01:52:27.695Z,76.54
2018-06-18T01:54:58.443Z,76.56
2018-06-18T01:57:28.595Z,76.64
2018-06-18T01:59:58.409Z,76.20
2018-06-18T02:02:28.266Z,75.84
2018-06-18T02:04:58.066Z,75.66
2018-06-18T02:07:27.895Z,75.60
2018-06-18T02:09:57.749Z,75.13
2018-06-18T02:12:27.860Z,75.52
2018-06-18T02:14:58.593Z,75.76
2018-06-18T02:17:28.929Z,75.70
2018-06-18T02:19:58.800Z,76.03
2018-06-18T02:22:28.670Z,75.47
2018-06-18T02:24:58.624Z,75.52
2018-06-18T02:27:33.654Z,75.26
2018-06-18T02:30:08.638Z,75.01
2018-06-18T02:32:43.610Z,75.16
2018-06-18T02:35:18.841Z,75.39
2018-06-18T02:37:53.894Z,75.56
2018-06-18T02:40:28.796Z,75.38
2018-06-18T02:42:58.627Z,76.03
2018-06-18T02:45:28.734Z,76.27
2018-06-18T02:47:58.549Z,75.51
2018-06-18T02:50:28.821Z,75.55
2018-06-18T02:52:58.806Z,75.40
2018-06-18T02:55:28.734Z,75.27
2018-06-18T02:57:58.680Z,75.09
2018-06-18T03:00:28.589Z,74.82
2018-06-18T03:02:58.598Z,75.20
2018-06-18T03:05:28.583Z,75.34
2018-06-18T03:07:59.082Z,75.05
2018-06-18T03:10:29.204Z,75.39
2018-06-18T03:12:58.985Z,75.59
2018-06-18T03:15:29.112Z,76.39
2018-06-18T03:17:59.255Z,76.02
2018-06-18T03:20:34.857Z,75.33
2018-06-18T03:23:10.060Z,75.18
2018-06-18T03:26:48.004Z,76.10
2018-06-18T03:29:20.342Z,76.72
2018-06-18T03:31:51.150Z,76.73
2018-06-18T03:34:20.995Z,76.99
2018-06-18T03:36:50.923Z,77.23
2018-06-18T03:39:20.734Z,77.75
2018-06-18T03:41:52.403Z,77.47
2018-06-18T03:44:33.852Z,78.14
2018-06-18T03:47:12.021Z,77.97
2018-06-18T03:49:42.793Z,78.12
2018-06-18T03:52:12.648Z,78.06
2018-06-18T03:54:43.149Z,77.86
2018-06-18T03:57:13.228Z,77.89
2018-06-18T03:59:43.174Z,78.41
2018-06-18T04:02:24.345Z,78.46
2018-06-18T04:05:01.297Z,78.25
2018-06-18T04:07:41.292Z,77.72
2018-06-18T04:10:16.430Z,77.89
2018-06-18T04:12:46.348Z,77.55
2018-06-18T04:15:16.800Z,77.56
2018-06-18T04:17:46.687Z,77.58
2018-06-18T04:20:17.067Z,76.95
2018-06-18T04:22:46.884Z,76.79
2018-06-18T04:25:16.678Z,77.02
2018-06-18T04:27:46.902Z,76.15
2018-06-18T04:30:17.004Z,75.94
2018-06-18T04:32:46.799Z,75.78
2018-06-18T04:35:17.744Z,76.28
2018-06-18T04:37:47.979Z,76.50
2018-06-18T04:40:17.912Z,76.15
2018-06-18T04:42:52.901Z,76.54
2018-06-18T04:45:28.885Z,76.67
2018-06-18T04:48:03.998Z,75.96
2018-06-18T04:50:39.780Z,75.75
2018-06-18T04:53:09.783Z,75.20
2018-06-18T04:55:40.436Z,74.41
2018-06-18T04:58:10.654Z,74.97
2018-06-18T05:00:56.992Z,74.07
2018-06-18T05:03:26.800Z,75.02
2018-06-18T05:05:56.614Z,75.40
2018-06-18T05:09:09.250Z,76.42
2018-06-18T05:11:39.058Z,76.23
2018-06-18T05:14:09.196Z,76.89
2018-06-18T05:16:39.090Z,76.46
2018-06-18T05:19:09.754Z,76.58
2018-06-18T05:21:39.620Z,77.08
2018-06-18T05:24:09.522Z,77.49
2018-06-18T05:26:49.246Z,77.74
2018-06-18T05:29:20.927Z,77.64
2018-06-18T05:31:51.654Z,77.37
2018-06-18T05:34:26.019Z,77.35
2018-06-18T05:36:59.773Z,77.31
2018-06-18T05:39:29.769Z,78.27
2018-06-18T05:41:59.934Z,78.22
2018-06-18T05:44:30.159Z,78.58
2018-06-18T05:46:59.999Z,78.02
2018-06-18T05:49:29.840Z,77.22
2018-06-18T05:51:59.983Z,77.52
2018-06-18T05:54:30.607Z,78.72
2018-06-18T12:19:06.832Z,37.94
2018-06-18T12:21:37.202Z,38.22
2018-06-18T12:24:08.548Z,37.93
2018-06-18T12:26:38.990Z,39.75
2018-06-18T12:29:09.584Z,40.98
2018-06-18T12:31:40.024Z,41.46
2018-06-18T12:34:10.485Z,41.28
2018-06-18T12:36:40.754Z,41.79
2018-06-18T12:39:12.136Z,40.61
2018-06-18T12:41:50.352Z,40.94
2018-06-18T12:44:20.796Z,42.12
2018-06-18T12:46:56.637Z,41.10
2018-06-18T12:49:32.562Z,36.73
2018-06-18T12:52:08.194Z,37.87
2018-06-18T12:54:43.553Z,36.70
2018-06-18T12:57:13.963Z,36.65
2018-06-18T12:59:44.304Z,34.69
2018-06-18T13:02:22.562Z,35.27
2018-06-18T13:04:58.357Z,34.66
2018-06-18T13:07:28.982Z,32.28
2018-06-18T13:09:59.650Z,32.45
2018-06-18T13:12:30.155Z,35.49
2018-06-18T13:15:01.104Z,37.24
2018-06-18T13:17:31.874Z,37.50
2018-06-18T13:20:02.422Z,37.37
2018-06-18T13:22:32.756Z,38.01
2018-06-18T13:25:03.177Z,37.95
2018-06-18T13:27:38.698Z,38.83
2018-06-18T13:30:09.174Z,40.00
2018-06-18T13:32:39.564Z,39.45
2018-06-18T13:35:09.913Z,38.08
2018-06-18T13:37:45.381Z,39.67
2018-06-18T13:40:20.973Z,37.00
2018-06-18T13:42:56.610Z,37.95
2018-06-18T13:45:39.606Z,37.84
2018-06-18T13:48:15.135Z,38.31
2018-06-18T13:50:45.595Z,38.92
2018-06-18T13:53:16.371Z,39.74
2018-06-18T13:55:46.777Z,40.89
2018-06-18T13:58:17.221Z,40.63
2018-06-18T14:00:47.659Z,40.85
2018-06-18T14:03:18.013Z,39.30
2018-06-18T14:05:48.465Z,37.44
2018-06-18T14:08:19.314Z,35.21
2018-06-18T14:10:50.410Z,34.02
2018-06-18T14:13:20.838Z,34.78
2018-06-18T14:15:51.199Z,32.91
2018-06-18T14:18:21.843Z,33.35
2018-06-18T14:20:52.333Z,33.47
2018-06-18T14:23:22.750Z,34.10
2018-06-18T14:25:53.237Z,34.06
2018-06-18T14:28:23.582Z,33.52
2018-06-18T14:30:59.173Z,34.99
2018-06-18T14:33:34.580Z,34.45
2018-06-18T14:36:10.571Z,34.39
2018-06-18T14:38:46.175Z,34.65
2018-06-18T14:41:16.529Z,33.86
2018-06-18T14:43:46.963Z,33.84
2018-06-18T14:46:17.424Z,35.73
2018-06-18T14:48:48.099Z,37.41
2018-06-18T14:51:18.580Z,38.68
2018-06-18T14:53:49.427Z,39.12
2018-06-18T14:56:24.338Z,38.92
2018-06-18T14:59:03.658Z,38.93
2018-06-18T15:01:34.037Z,38.33
2018-06-18T15:04:04.547Z,37.70
2018-06-18T15:06:35.074Z,34.66
2018-06-18T15:09:08.664Z,35.57
2018-06-18T15:11:39.445Z,36.32
2018-06-18T15:14:10.281Z,36.13
2018-06-18T15:16:41.015Z,35.98
2018-06-18T15:19:11.068Z,35.69
2018-06-18T15:21:45.201Z,36.78
2018-06-18T15:24:23.103Z,34.32
2018-06-18T15:26:53.627Z,34.30
2018-06-18T15:29:23.982Z,33.49
2018-06-18T15:31:54.417Z,33.54
2018-06-18T15:34:24.743Z,35.01
2018-06-18T15:36:55.169Z,32.54
2018-06-18T15:39:25.591Z,32.34
2018-06-18T15:41:56.015Z,32.18
2018-06-18T15:44:27.110Z,34.35
2018-06-18T15:46:57.616Z,32.81
2018-06-18T15:49:28.000Z,34.22
2018-06-18T15:51:58.491Z,34.38
2018-06-18T15:54:29.254Z,34.41
2018-06-18T15:57:00.237Z,35.63
2018-06-18T15:59:31.413Z,34.92
2018-06-18T16:02:02.094Z,35.90
2018-06-18T16:04:32.476Z,37.14
2018-06-18T16:07:02.847Z,37.74
2018-06-18T16:09:33.202Z,36.74
2018-06-18T16:12:03.288Z,35.43
2018-06-18T16:14:33.726Z,36.44
2018-06-18T16:17:04.240Z,36.12
2018-06-18T16:19:34.653Z,34.69
2018-06-18T16:22:05.469Z,35.02
2018-06-18T16:24:35.960Z,34.33
2018-06-18T16:27:06.454Z,35.11
2018-06-18T16:29:37.453Z,34.03
2018-06-18T16:36:46.504Z,35.28
2018-06-18T16:39:17.226Z,35.64
2018-06-18T16:41:48.214Z,36.14
2018-06-18T16:44:18.991Z,35.31
2018-06-18T16:46:49.386Z,35.72
2018-06-18T16:49:19.992Z,34.50
2018-06-18T16:51:50.595Z,34.18
2018-06-18T16:54:21.218Z,33.10
2018-06-18T16:56:52.083Z,34.24
2018-06-18T16:59:22.487Z,33.75
2018-06-18T17:01:52.847Z,34.33
2018-06-18T17:04:23.351Z,35.34
2018-06-18T17:06:54.057Z,35.89
2018-06-18T17:09:24.502Z,34.98
2018-06-18T17:11:54.929Z,34.75
2018-06-18T17:14:25.371Z,36.33
2018-06-18T17:16:55.708Z,36.02
2018-06-18T17:19:27.071Z,35.65
2018-06-18T17:21:58.423Z,36.71
2018-06-18T17:24:28.851Z,36.89
2018-06-18T17:26:59.255Z,36.57
2018-06-18T17:29:29.597Z,37.25
2018-06-18T17:31:59.979Z,37.50
2018-06-18T17:34:30.429Z,38.56
2018-06-18T17:37:00.916Z,37.96
2018-06-18T17:39:31.665Z,36.95
2018-06-18T17:42:02.199Z,37.88
2018-06-18T17:44:33.321Z,37.56
2018-06-18T17:47:03.701Z,38.03
2018-06-18T17:49:34.795Z,38.46
2018-06-18T17:52:05.313Z,38.03
2018-06-18T17:54:36.215Z,36.98
2018-06-18T17:57:07.439Z,38.04
2018-06-18T17:59:37.951Z,37.91
2018-06-18T18:02:08.702Z,38.47
2018-06-18T18:04:39.183Z,39.54
2018-06-18T18:07:10.104Z,38.53
2018-06-18T18:09:40.728Z,38.07
2018-06-18T18:12:11.575Z,38.93
2018-06-18T18:14:42.936Z,37.77
2018-06-18T18:17:13.324Z,37.80
2018-06-18T18:19:43.826Z,37.35
2018-06-18T18:22:14.431Z,36.97
2018-06-18T18:24:44.936Z,37.80
2018-06-18T18:27:15.337Z,38.02
2018-06-18T18:29:45.800Z,38.00
2018-06-18T18:32:16.247Z,38.11
2018-06-18T18:34:47.027Z,38.46
2018-06-18T18:37:18.008Z,38.57
2018-06-18T18:39:48.446Z,38.85
2018-06-18T18:42:18.929Z,39.42
2018-06-18T18:44:49.387Z,40.26
2018-06-18T18:47:19.753Z,39.79
2018-06-18T18:49:50.177Z,39.66
2018-06-18T18:52:20.530Z,40.65
2018-06-18T18:56:07.330Z,40.69
2018-06-18T18:59:45.276Z,40.82
2018-06-18T19:02:15.627Z,41.00
2018-06-18T19:05:00.433Z,41.85
2018-06-18T19:07:41.725Z,42.12
2018-06-18T19:10:25.675Z,42.62
2018-06-18T19:12:58.357Z,42.94
2018-06-18T19:15:28.814Z,43.77
2018-06-18T19:17:59.555Z,43.88
2018-06-18T19:20:35.877Z,44.08
2018-06-18T19:23:06.271Z,44.40
2018-06-18T19:25:36.636Z,44.76
2018-06-18T19:28:07.316Z,45.60
2018-06-18T19:30:39.899Z,45.49
2018-06-18T19:33:19.323Z,45.65
2018-06-18T19:35:50.070Z,46.69
2018-06-18T19:38:20.446Z,47.62
2018-06-18T19:40:50.806Z,48.77
2018-06-18T19:43:21.172Z,49.63
2018-06-18T19:45:56.258Z,49.85
2018-06-18T19:48:34.793Z,50.86
2018-06-18T19:51:05.140Z,51.38
2018-06-18T19:53:35.552Z,51.80
2018-06-18T19:56:06.506Z,51.72
2018-06-18T19:58:37.023Z,51.89
2018-06-18T20:01:09.306Z,51.59
2018-06-18T20:03:39.670Z,50.75
2018-06-18T20:06:10.624Z,51.90
2018-06-18T20:08:41.193Z,51.60
2018-06-18T20:11:11.905Z,51.99
2018-06-18T20:13:44.168Z,52.70
2018-06-18T20:16:14.556Z,52.57
2018-06-18T20:18:44.870Z,51.23
2018-06-18T20:21:15.302Z,51.46
2018-06-18T20:23:45.854Z,52.52
2018-06-18T20:26:17.234Z,53.43
2018-06-18T20:28:47.630Z,53.93
2018-06-18T20:31:18.094Z,53.48
2018-06-18T20:33:54.100Z,53.62
2018-06-18T20:36:26.426Z,54.25
2018-06-18T20:38:56.832Z,55.18
2018-06-18T20:41:27.209Z,54.70
2018-06-18T20:44:28.413Z,55.33
2018-06-18T20:46:58.916Z,55.26
2018-06-18T20:49:29.398Z,55.06
2018-06-18T20:51:59.837Z,54.77
2018-06-18T20:54:30.263Z,55.25
2018-06-18T20:57:00.617Z,54.76
2018-06-18T20:59:31.138Z,55.22
2018-06-18T21:02:01.498Z,55.83
2018-06-18T21:04:31.792Z,55.32
2018-06-18T21:07:02.124Z,55.81
2018-06-18T21:09:32.495Z,55.07
2018-06-18T21:12:02.829Z,56.32
2018-06-18T21:14:33.266Z,55.32
2018-06-18T21:17:03.600Z,56.33
2018-06-18T21:19:34.060Z,56.72
2018-06-18T21:22:04.429Z,55.80
2018-06-18T21:24:34.731Z,56.26
2018-06-18T21:27:05.314Z,56.55
2018-06-18T21:29:35.962Z,56.37
2018-06-18T21:32:06.714Z,56.46
2018-06-18T21:34:37.108Z,56.26
2018-06-18T21:37:07.462Z,55.95
2018-06-18T21:39:37.766Z,56.75
2018-06-18T21:42:08.386Z,56.56
2018-06-18T21:44:48.834Z,56.84
2018-06-18T21:47:19.237Z,57.95
2018-06-18T21:49:49.652Z,58.70
2018-06-18T21:52:19.978Z,59.18
2018-06-18T21:54:50.430Z,58.79
2018-06-18T21:57:21.397Z,58.08
2018-06-18T21:59:51.762Z,57.86
2018-06-18T22:02:22.160Z,58.55
2018-06-18T22:04:52.898Z,58.27
2018-06-18T22:07:24.589Z,58.00
2018-06-18T22:09:59.630Z,58.03
2018-06-18T22:13:05.078Z,58.30
2018-06-18T22:15:35.606Z,58.95
2018-06-18T22:18:06.348Z,59.38
2018-06-18T22:20:36.831Z,59.47
2018-06-18T22:23:07.300Z,59.21
2018-06-18T22:25:38.017Z,59.39
2018-06-18T22:28:29.974Z,58.89
2018-06-18T22:31:01.392Z,59.21
2018-06-18T22:33:31.848Z,59.08
2018-06-18T22:36:02.359Z,59.34
2018-06-18T22:38:33.038Z,59.60
2018-06-18T22:41:03.522Z,59.62
2018-06-18T22:43:34.027Z,58.81
2018-06-18T22:46:04.990Z,58.42
2018-06-18T22:48:35.511Z,58.53
2018-06-18T22:51:06.229Z,59.55
2018-06-18T22:53:36.764Z,59.19
2018-06-18T22:56:07.711Z,59.10
2018-06-18T22:58:38.124Z,58.89
2018-06-18T23:01:08.554Z,59.75
2018-06-18T23:03:39.045Z,60.34
2018-06-18T23:06:09.724Z,60.08
2018-06-18T23:08:40.184Z,60.62
2018-06-18T23:11:10.678Z,60.48
2018-06-18T23:13:41.480Z,60.74
2018-06-18T23:16:11.885Z,61.22
2018-06-18T23:18:42.482Z,61.31
2018-06-18T23:21:13.024Z,61.24
2018-06-18T23:23:42.858Z,60.81
2018-06-18T23:26:13.402Z,61.69
2018-06-18T23:28:50.548Z,61.31
2018-06-18T23:31:20.502Z,61.55
2018-06-18T23:33:50.631Z,62.33
2018-06-18T23:36:21.606Z,61.87
2018-06-18T23:38:52.087Z,62.54
2018-06-18T23:41:23.359Z,62.42
2018-06-18T23:43:53.415Z,62.91
2018-06-18T23:46:23.822Z,62.88
2018-06-18T23:48:54.730Z,63.06
2018-06-18T23:51:25.482Z,63.12
2018-06-18T23:53:56.361Z,62.82
